sensor_id;sensor_type;location;lat;lon;timestamp;P1;P2;P0
69350;PMS7003;57106;51.446;-2.606;2023-09-18T00:43:17;17;17;
69350;PMS7003;57106;51.446;-2.606;2023-09-18T00:45:42;14;13;
69350;PMS7003;57106;51.446;-2.606;2023-09-18T00:48:07;14;12;
69350;PMS7003;57106;51.446;-2.606;2023-09-18T00:50:33;12;12;
69350;PMS7003;57106;51.446;-2.606;2023-09-18T00:52:58;16;15;
69350;PMS7003;57106;51.446;-2.606;2023-09-18T00:55:24;13;13;
69350;PMS7003;57106;51.446;-2.606;2023-09-18T00:57:50;16;16;
69350;PMS7003;57106;51.446;-2.606;2023-09-18T01:00:15;17;17;
69350;PMS7003;57106;51.446;-2.606;2023-09-18T01:02:43;18;16;
69350;PMS7003;57106;51.446;-2.606;2023-09-18T01:05:06;15;15;
69350;PMS7003;57106;51.446;-2.606;2023-09-18T01:26:55;18;16;
69350;PMS7003;57106;51.446;-2.606;2023-09-18T01:29:21;16;16;
69350;PMS7003;57106;51.446;-2.606;2023-09-18T01:31:47;15;15;
69350;PMS7003;57106;51.446;-2.606;2023-09-18T01:34:12;15;13;
69350;PMS7003;57106;51.446;-2.606;2023-09-18T01:39:03;15;15;
69350;PMS7003;57106;51.446;-2.606;2023-09-18T08:43:01;1;1;
69350;PMS7003;57106;51.446;-2.606;2023-09-18T08:45:27;1;1;
69350;PMS7003;57106;51.446;-2.606;2023-09-18T08:57:33;3;1;
69350;PMS7003;57106;51.446;-2.606;2023-09-18T08:59:58;2;2;
69350;PMS7003;57106;51.446;-2.606;2023-09-18T09:04:49;0;0;
69350;PMS7003;57106;51.446;-2.606;2023-09-18T09:09:40;1;1;
69350;PMS7003;57106;51.446;-2.606;2023-09-18T09:12:05;4;2;
69350;PMS7003;57106;51.446;-2.606;2023-09-18T09:16:56;2;1;
69350;PMS7003;57106;51.446;-2.606;2023-09-18T09:24:11;0;0;
69350;PMS7003;57106;51.446;-2.606;2023-09-18T09:26:37;0;0;
69350;PMS7003;57106;51.446;-2.606;2023-09-18T09:36:18;1;0;
69350;PMS7003;57106;51.446;-2.606;2023-09-18T09:38:43;0;0;
69350;PMS7003;57106;51.446;-2.606;2023-09-18T09:41:10;1;1;
69350;PMS7003;57106;51.446;-2.606;2023-09-18T09:43:34;0;0;
69350;PMS7003;57106;51.446;-2.606;2023-09-18T09:46:00;0;0;
69350;PMS7003;57106;51.446;-2.606;2023-09-18T09:48:25;1;1;
69350;PMS7003;57106;51.446;-2.606;2023-09-18T09:50:50;1;1;
69350;PMS7003;57106;51.446;-2.606;2023-09-18T09:53:24;1;1;
69350;PMS7003;57106;51.446;-2.606;2023-09-18T09:55:51;2;1;
69350;PMS7003;57106;51.446;-2.606;2023-09-18T09:58:07;0;0;
69350;PMS7003;57106;51.446;-2.606;2023-09-18T10:00:33;1;1;
69350;PMS7003;57106;51.446;-2.606;2023-09-18T10:02:58;0;0;
69350;PMS7003;57106;51.446;-2.606;2023-09-18T10:05:29;1;1;
69350;PMS7003;57106;51.446;-2.606;2023-09-18T10:07:47;0;0;
69350;PMS7003;57106;51.446;-2.606;2023-09-18T10:10:13;1;1;
69350;PMS7003;57106;51.446;-2.606;2023-09-18T10:12:38;2;1;
69350;PMS7003;57106;51.446;-2.606;2023-09-18T10:15:04;0;0;
69350;PMS7003;57106;51.446;-2.606;2023-09-18T10:20:02;1;0;
69350;PMS7003;57106;51.446;-2.606;2023-09-18T10:22:21;1;1;
69350;PMS7003;57106;51.446;-2.606;2023-09-18T10:24:46;0;0;
69350;PMS7003;57106;51.446;-2.606;2023-09-18T10:27:10;1;1;
69350;PMS7003;57106;51.446;-2.606;2023-09-18T10:29:36;1;1;
69350;PMS7003;57106;51.446;-2.606;2023-09-18T10:32:02;0;0;
69350;PMS7003;57106;51.446;-2.606;2023-09-18T10:36:53;0;0;
69350;PMS7003;57106;51.446;-2.606;2023-09-18T10:39:17;1;1;
69350;PMS7003;57106;51.446;-2.606;2023-09-18T10:41:42;1;1;
69350;PMS7003;57106;51.446;-2.606;2023-09-18T10:44:07;4;4;
69350;PMS7003;57106;51.446;-2.606;2023-09-18T10:46:33;5;5;
69350;PMS7003;57106;51.446;-2.606;2023-09-18T10:48:58;7;6;
69350;PMS7003;57106;51.446;-2.606;2023-09-18T10:56:14;6;6;
69350;PMS7003;57106;51.446;-2.606;2023-09-18T11:01:05;7;7;
69350;PMS7003;57106;51.446;-2.606;2023-09-18T11:03:32;7;7;
69350;PMS7003;57106;51.446;-2.606;2023-09-18T11:06:03;4;4;
69350;PMS7003;57106;51.446;-2.606;2023-09-18T11:08:26;3;3;
69350;PMS7003;57106;51.446;-2.606;2023-09-18T11:15:38;6;6;
69350;PMS7003;57106;51.446;-2.606;2023-09-18T11:20:28;3;3;
69350;PMS7003;57106;51.446;-2.606;2023-09-18T11:22:55;4;3;
69350;PMS7003;57106;51.446;-2.606;2023-09-18T11:30:10;3;3;
69350;PMS7003;57106;51.446;-2.606;2023-09-18T11:39:51;1;1;
69350;PMS7003;57106;51.446;-2.606;2023-09-18T11:42:17;2;2;
69350;PMS7003;57106;51.446;-2.606;2023-09-18T11:44:41;0;0;
69350;PMS7003;57106;51.446;-2.606;2023-09-18T11:47:07;2;2;
69350;PMS7003;57106;51.446;-2.606;2023-09-18T11:49:36;1;1;
69350;PMS7003;57106;51.446;-2.606;2023-09-18T11:51:58;2;1;
69350;PMS7003;57106;51.446;-2.606;2023-09-18T11:54:23;1;1;
69350;PMS7003;57106;51.446;-2.606;2023-09-18T11:56:48;0;0;
69350;PMS7003;57106;51.446;-2.606;2023-09-18T11:59:13;2;2;
69350;PMS7003;57106;51.446;-2.606;2023-09-18T12:01:39;0;0;
69350;PMS7003;57106;51.446;-2.606;2023-09-18T12:04:04;1;0;
69350;PMS7003;57106;51.446;-2.606;2023-09-18T12:06:29;2;0;
69350;PMS7003;57106;51.446;-2.606;2023-09-18T12:08:55;1;1;
69350;PMS7003;57106;51.446;-2.606;2023-09-18T12:11:20;1;1;
69350;PMS7003;57106;51.446;-2.606;2023-09-18T12:13:46;0;0;
69350;PMS7003;57106;51.446;-2.606;2023-09-18T12:16:11;0;0;
69350;PMS7003;57106;51.446;-2.606;2023-09-18T12:18:36;0;0;
69350;PMS7003;57106;51.446;-2.606;2023-09-18T12:21:02;2;2;
69350;PMS7003;57106;51.446;-2.606;2023-09-18T12:23:27;1;0;
69350;PMS7003;57106;51.446;-2.606;2023-09-18T12:25:57;1;1;
69350;PMS7003;57106;51.446;-2.606;2023-09-18T12:28:18;0;0;
69350;PMS7003;57106;51.446;-2.606;2023-09-18T12:30:48;0;0;
69350;PMS7003;57106;51.446;-2.606;2023-09-18T12:33:09;0;0;
69350;PMS7003;57106;51.446;-2.606;2023-09-18T12:37:59;1;1;
69350;PMS7003;57106;51.446;-2.606;2023-09-18T12:40:25;1;1;
69350;PMS7003;57106;51.446;-2.606;2023-09-18T12:42:50;1;1;
69350;PMS7003;57106;51.446;-2.606;2023-09-18T12:45:20;0;0;
69350;PMS7003;57106;51.446;-2.606;2023-09-18T12:47:40;4;1;
69350;PMS7003;57106;51.446;-2.606;2023-09-18T12:50:06;0;0;
69350;PMS7003;57106;51.446;-2.606;2023-09-18T12:52:31;1;1;
69350;PMS7003;57106;51.446;-2.606;2023-09-18T12:54:56;0;0;
69350;PMS7003;57106;51.446;-2.606;2023-09-18T12:57:22;1;1;
69350;PMS7003;57106;51.446;-2.606;2023-09-18T12:59:47;0;0;
69350;PMS7003;57106;51.446;-2.606;2023-09-18T13:02:13;1;1;
69350;PMS7003;57106;51.446;-2.606;2023-09-18T13:04:38;0;0;
69350;PMS7003;57106;51.446;-2.606;2023-09-18T13:07:05;0;0;
69350;PMS7003;57106;51.446;-2.606;2023-09-18T13:09:28;0;0;
69350;PMS7003;57106;51.446;-2.606;2023-09-18T13:11:55;0;0;
69350;PMS7003;57106;51.446;-2.606;2023-09-18T13:14:19;1;0;
69350;PMS7003;57106;51.446;-2.606;2023-09-18T13:16:44;0;0;
69350;PMS7003;57106;51.446;-2.606;2023-09-18T13:19:10;0;0;
69350;PMS7003;57106;51.446;-2.606;2023-09-18T13:21:35;0;0;
69350;PMS7003;57106;51.446;-2.606;2023-09-18T13:24:00;0;0;
69350;PMS7003;57106;51.446;-2.606;2023-09-18T13:26:32;0;0;
69350;PMS7003;57106;51.446;-2.606;2023-09-18T13:28:51;1;0;
69350;PMS7003;57106;51.446;-2.606;2023-09-18T13:31:17;2;0;
69350;PMS7003;57106;51.446;-2.606;2023-09-18T13:33:42;0;0;
69350;PMS7003;57106;51.446;-2.606;2023-09-18T13:36:07;0;0;
69350;PMS7003;57106;51.446;-2.606;2023-09-18T13:38:32;0;0;
69350;PMS7003;57106;51.446;-2.606;2023-09-18T13:40:58;1;1;
69350;PMS7003;57106;51.446;-2.606;2023-09-18T13:43:23;0;0;
69350;PMS7003;57106;51.446;-2.606;2023-09-18T13:45:49;0;0;
69350;PMS7003;57106;51.446;-2.606;2023-09-18T13:48:14;0;0;
69350;PMS7003;57106;51.446;-2.606;2023-09-18T13:50:39;0;0;
69350;PMS7003;57106;51.446;-2.606;2023-09-18T13:53:04;1;1;
69350;PMS7003;57106;51.446;-2.606;2023-09-18T13:55:30;0;0;
69350;PMS7003;57106;51.446;-2.606;2023-09-18T13:57:55;0;0;
69350;PMS7003;57106;51.446;-2.606;2023-09-18T14:00:21;1;0;
69350;PMS7003;57106;51.446;-2.606;2023-09-18T14:02:46;0;0;
69350;PMS7003;57106;51.446;-2.606;2023-09-18T14:05:11;0;0;
69350;PMS7003;57106;51.446;-2.606;2023-09-18T14:07:37;0;0;
69350;PMS7003;57106;51.446;-2.606;2023-09-18T14:10:02;0;0;
69350;PMS7003;57106;51.446;-2.606;2023-09-18T14:12:27;0;0;
69350;PMS7003;57106;51.446;-2.606;2023-09-18T14:14:53;3;1;
69350;PMS7003;57106;51.446;-2.606;2023-09-18T14:17:18;3;1;
69350;PMS7003;57106;51.446;-2.606;2023-09-18T14:19:43;0;0;
69350;PMS7003;57106;51.446;-2.606;2023-09-18T14:22:10;1;1;
69350;PMS7003;57106;51.446;-2.606;2023-09-18T14:24:34;1;0;
69350;PMS7003;57106;51.446;-2.606;2023-09-18T14:27:00;1;1;
69350;PMS7003;57106;51.446;-2.606;2023-09-18T14:29:25;0;0;
69350;PMS7003;57106;51.446;-2.606;2023-09-18T14:31:51;3;2;
69350;PMS7003;57106;51.446;-2.606;2023-09-18T14:34:15;0;0;
69350;PMS7003;57106;51.446;-2.606;2023-09-18T14:39:11;0;0;
69350;PMS7003;57106;51.446;-2.606;2023-09-18T14:41:32;2;1;
69350;PMS7003;57106;51.446;-2.606;2023-09-18T14:48:48;0;0;
69350;PMS7003;57106;51.446;-2.606;2023-09-18T14:51:14;1;0;
69350;PMS7003;57106;51.446;-2.606;2023-09-18T15:00:56;0;0;
69350;PMS7003;57106;51.446;-2.606;2023-09-18T15:03:20;1;1;
69350;PMS7003;57106;51.446;-2.606;2023-09-18T15:05:45;1;1;
69350;PMS7003;57106;51.446;-2.606;2023-09-18T15:08:11;0;0;
69350;PMS7003;57106;51.446;-2.606;2023-09-18T15:10:36;1;0;
69350;PMS7003;57106;51.446;-2.606;2023-09-18T15:13:02;0;0;
69350;PMS7003;57106;51.446;-2.606;2023-09-18T15:15:27;2;2;
69350;PMS7003;57106;51.446;-2.606;2023-09-18T15:17:52;2;1;
69350;PMS7003;57106;51.446;-2.606;2023-09-18T15:20:18;3;1;
69350;PMS7003;57106;51.446;-2.606;2023-09-18T15:22:43;1;0;
69350;PMS7003;57106;51.446;-2.606;2023-09-18T15:25:08;6;3;
69350;PMS7003;57106;51.446;-2.606;2023-09-18T15:27:34;2;1;
69350;PMS7003;57106;51.446;-2.606;2023-09-18T15:29:59;2;2;
69350;PMS7003;57106;51.446;-2.606;2023-09-18T15:32:24;0;0;
69350;PMS7003;57106;51.446;-2.606;2023-09-18T15:34:50;3;1;
69350;PMS7003;57106;51.446;-2.606;2023-09-18T15:37:15;0;0;
69350;PMS7003;57106;51.446;-2.606;2023-09-18T15:42:06;0;0;
69350;PMS7003;57106;51.446;-2.606;2023-09-18T15:44:32;1;0;
69350;PMS7003;57106;51.446;-2.606;2023-09-18T15:46:57;0;0;
69350;PMS7003;57106;51.446;-2.606;2023-09-18T15:49:22;0;0;
69350;PMS7003;57106;51.446;-2.606;2023-09-18T15:51:47;3;0;
69350;PMS7003;57106;51.446;-2.606;2023-09-18T15:54:13;0;0;
69350;PMS7003;57106;51.446;-2.606;2023-09-18T15:56:38;1;0;
69350;PMS7003;57106;51.446;-2.606;2023-09-18T15:59:04;0;0;
69350;PMS7003;57106;51.446;-2.606;2023-09-18T16:01:31;0;0;
69350;PMS7003;57106;51.446;-2.606;2023-09-18T16:03:54;0;0;
69350;PMS7003;57106;51.446;-2.606;2023-09-18T16:06:20;1;0;
69350;PMS7003;57106;51.446;-2.606;2023-09-18T16:08:45;0;0;
69350;PMS7003;57106;51.446;-2.606;2023-09-18T16:11:11;1;1;
69350;PMS7003;57106;51.446;-2.606;2023-09-18T16:13:36;2;1;
69350;PMS7003;57106;51.446;-2.606;2023-09-18T16:16:01;0;0;
69350;PMS7003;57106;51.446;-2.606;2023-09-18T16:18:26;1;0;
69350;PMS7003;57106;51.446;-2.606;2023-09-18T16:20:52;0;0;
69350;PMS7003;57106;51.446;-2.606;2023-09-18T16:23:18;0;0;
69350;PMS7003;57106;51.446;-2.606;2023-09-18T16:25:46;4;2;
69350;PMS7003;57106;51.446;-2.606;2023-09-18T16:28:08;0;0;
69350;PMS7003;57106;51.446;-2.606;2023-09-18T16:30:33;1;0;
69350;PMS7003;57106;51.446;-2.606;2023-09-18T16:32:59;2;2;
69350;PMS7003;57106;51.446;-2.606;2023-09-18T16:35:24;0;0;
69350;PMS7003;57106;51.446;-2.606;2023-09-18T16:37:50;1;1;
69350;PMS7003;57106;51.446;-2.606;2023-09-18T16:40:15;0;0;
69350;PMS7003;57106;51.446;-2.606;2023-09-18T16:42:40;3;1;
69350;PMS7003;57106;51.446;-2.606;2023-09-18T16:45:06;4;2;
69350;PMS7003;57106;51.446;-2.606;2023-09-18T16:47:31;2;0;
69350;PMS7003;57106;51.446;-2.606;2023-09-18T16:49:56;2;0;
69350;PMS7003;57106;51.446;-2.606;2023-09-18T16:52:22;1;0;
69350;PMS7003;57106;51.446;-2.606;2023-09-18T16:54:47;1;1;
69350;PMS7003;57106;51.446;-2.606;2023-09-18T16:57:13;1;1;
69350;PMS7003;57106;51.446;-2.606;2023-09-18T16:59:38;2;1;
69350;PMS7003;57106;51.446;-2.606;2023-09-18T17:02:04;2;1;
69350;PMS7003;57106;51.446;-2.606;2023-09-18T17:04:29;1;1;
69350;PMS7003;57106;51.446;-2.606;2023-09-18T17:06:54;1;1;
69350;PMS7003;57106;51.446;-2.606;2023-09-18T17:09:20;1;1;
69350;PMS7003;57106;51.446;-2.606;2023-09-18T17:11:45;2;1;
69350;PMS7003;57106;51.446;-2.606;2023-09-18T17:14:10;0;0;
69350;PMS7003;57106;51.446;-2.606;2023-09-18T17:16:36;3;0;
69350;PMS7003;57106;51.446;-2.606;2023-09-18T17:19:02;0;0;
69350;PMS7003;57106;51.446;-2.606;2023-09-18T17:21:27;2;0;
69350;PMS7003;57106;51.446;-2.606;2023-09-18T17:23:52;1;1;
69350;PMS7003;57106;51.446;-2.606;2023-09-18T17:26:18;2;1;
69350;PMS7003;57106;51.446;-2.606;2023-09-18T17:31:08;2;0;
69350;PMS7003;57106;51.446;-2.606;2023-09-18T17:33:35;2;2;
69350;PMS7003;57106;51.446;-2.606;2023-09-18T17:35:59;0;0;
69350;PMS7003;57106;51.446;-2.606;2023-09-18T17:40:50;0;0;
69350;PMS7003;57106;51.446;-2.606;2023-09-18T17:43:15;0;0;
69350;PMS7003;57106;51.446;-2.606;2023-09-18T17:45:41;0;0;
69350;PMS7003;57106;51.446;-2.606;2023-09-18T17:48:06;2;0;
69350;PMS7003;57106;51.446;-2.606;2023-09-18T17:50:31;0;0;
69350;PMS7003;57106;51.446;-2.606;2023-09-18T17:52:57;3;3;
69350;PMS7003;57106;51.446;-2.606;2023-09-18T17:55:22;1;1;
69350;PMS7003;57106;51.446;-2.606;2023-09-18T17:57:47;1;1;
69350;PMS7003;57106;51.446;-2.606;2023-09-18T18:00:13;0;0;
69350;PMS7003;57106;51.446;-2.606;2023-09-18T18:02:38;3;2;
69350;PMS7003;57106;51.446;-2.606;2023-09-18T18:05:06;3;1;
69350;PMS7003;57106;51.446;-2.606;2023-09-18T18:07:29;1;1;
69350;PMS7003;57106;51.446;-2.606;2023-09-18T18:09:54;1;1;
69350;PMS7003;57106;51.446;-2.606;2023-09-18T18:12:20;1;1;
69350;PMS7003;57106;51.446;-2.606;2023-09-18T18:14:45;0;0;
69350;PMS7003;57106;51.446;-2.606;2023-09-18T18:17:11;0;0;
69350;PMS7003;57106;51.446;-2.606;2023-09-18T18:19:36;21;20;
69350;PMS7003;57106;51.446;-2.606;2023-09-18T18:22:02;4;2;
69350;PMS7003;57106;51.446;-2.606;2023-09-18T18:24:27;1;1;
69350;PMS7003;57106;51.446;-2.606;2023-09-18T18:26:52;2;1;
69350;PMS7003;57106;51.446;-2.606;2023-09-18T18:29:18;1;0;
69350;PMS7003;57106;51.446;-2.606;2023-09-18T18:31:43;0;0;
69350;PMS7003;57106;51.446;-2.606;2023-09-18T18:34:08;1;0;
69350;PMS7003;57106;51.446;-2.606;2023-09-18T18:36:34;1;0;
69350;PMS7003;57106;51.446;-2.606;2023-09-18T18:38:59;4;1;
69350;PMS7003;57106;51.446;-2.606;2023-09-18T18:41:30;1;1;
69350;PMS7003;57106;51.446;-2.606;2023-09-18T18:43:50;2;1;
69350;PMS7003;57106;51.446;-2.606;2023-09-18T18:46:16;1;0;
69350;PMS7003;57106;51.446;-2.606;2023-09-18T18:48:41;2;1;
69350;PMS7003;57106;51.446;-2.606;2023-09-18T18:51:08;0;0;
69350;PMS7003;57106;51.446;-2.606;2023-09-18T18:53:33;1;1;
69350;PMS7003;57106;51.446;-2.606;2023-09-18T18:55:59;0;0;
69350;PMS7003;57106;51.446;-2.606;2023-09-18T19:00:48;3;1;
69350;PMS7003;57106;51.446;-2.606;2023-09-18T19:03:14;1;0;
69350;PMS7003;57106;51.446;-2.606;2023-09-18T19:05:40;1;0;
69350;PMS7003;57106;51.446;-2.606;2023-09-18T19:08:10;2;0;
69350;PMS7003;57106;51.446;-2.606;2023-09-18T19:10:31;1;1;
69350;PMS7003;57106;51.446;-2.606;2023-09-18T19:12:55;1;0;
69350;PMS7003;57106;51.446;-2.606;2023-09-18T19:15:21;4;2;
69350;PMS7003;57106;51.446;-2.606;2023-09-18T19:17:47;4;2;
69350;PMS7003;57106;51.446;-2.606;2023-09-18T19:20:12;1;0;
69350;PMS7003;57106;51.446;-2.606;2023-09-18T19:22:38;3;2;
69350;PMS7003;57106;51.446;-2.606;2023-09-18T19:25:03;1;1;
69350;PMS7003;57106;51.446;-2.606;2023-09-18T19:27:28;3;2;
69350;PMS7003;57106;51.446;-2.606;2023-09-18T19:29:58;1;1;
69350;PMS7003;57106;51.446;-2.606;2023-09-18T19:32:19;3;2;
69350;PMS7003;57106;51.446;-2.606;2023-09-18T19:34:44;1;0;
69350;PMS7003;57106;51.446;-2.606;2023-09-18T19:37:15;3;1;
69350;PMS7003;57106;51.446;-2.606;2023-09-18T19:39:46;3;1;
69350;PMS7003;57106;51.446;-2.606;2023-09-18T19:42:00;1;1;
69350;PMS7003;57106;51.446;-2.606;2023-09-18T19:44:26;3;0;
69350;PMS7003;57106;51.446;-2.606;2023-09-18T19:49:17;1;1;
69350;PMS7003;57106;51.446;-2.606;2023-09-18T19:51:42;0;0;
69350;PMS7003;57106;51.446;-2.606;2023-09-18T19:54:07;0;0;
69350;PMS7003;57106;51.446;-2.606;2023-09-18T19:56:33;1;1;
69350;PMS7003;57106;51.446;-2.606;2023-09-18T19:58:58;1;1;
69350;PMS7003;57106;51.446;-2.606;2023-09-18T20:01:24;0;0;
69350;PMS7003;57106;51.446;-2.606;2023-09-18T20:03:50;1;1;
69350;PMS7003;57106;51.446;-2.606;2023-09-18T20:06:15;2;0;
69350;PMS7003;57106;51.446;-2.606;2023-09-18T20:08:40;0;0;
69350;PMS7003;57106;51.446;-2.606;2023-09-18T20:11:09;1;1;
69350;PMS7003;57106;51.446;-2.606;2023-09-18T20:13:31;0;0;
69350;PMS7003;57106;51.446;-2.606;2023-09-18T20:15:56;0;0;
69350;PMS7003;57106;51.446;-2.606;2023-09-18T20:18:27;1;0;
69350;PMS7003;57106;51.446;-2.606;2023-09-18T20:20:47;1;0;
69350;PMS7003;57106;51.446;-2.606;2023-09-18T20:23:14;3;1;
69350;PMS7003;57106;51.446;-2.606;2023-09-18T20:25:38;0;0;
69350;PMS7003;57106;51.446;-2.606;2023-09-18T20:28:04;1;1;
69350;PMS7003;57106;51.446;-2.606;2023-09-18T20:30:29;1;1;
69350;PMS7003;57106;51.446;-2.606;2023-09-18T20:32:55;3;1;
69350;PMS7003;57106;51.446;-2.606;2023-09-18T20:35:20;1;1;
69350;PMS7003;57106;51.446;-2.606;2023-09-18T20:37:46;2;2;
69350;PMS7003;57106;51.446;-2.606;2023-09-18T20:42:36;3;1;
69350;PMS7003;57106;51.446;-2.606;2023-09-18T20:45:02;1;1;
69350;PMS7003;57106;51.446;-2.606;2023-09-18T20:47:27;1;1;
69350;PMS7003;57106;51.446;-2.606;2023-09-18T20:49:54;1;1;
69350;PMS7003;57106;51.446;-2.606;2023-09-18T20:52:18;2;1;
69350;PMS7003;57106;51.446;-2.606;2023-09-18T20:54:43;1;1;
69350;PMS7003;57106;51.446;-2.606;2023-09-18T20:57:09;2;1;
69350;PMS7003;57106;51.446;-2.606;2023-09-18T20:59:41;1;1;
69350;PMS7003;57106;51.446;-2.606;2023-09-18T21:02:02;2;1;
69350;PMS7003;57106;51.446;-2.606;2023-09-18T21:04:26;2;1;
69350;PMS7003;57106;51.446;-2.606;2023-09-18T21:06:52;3;1;
69350;PMS7003;57106;51.446;-2.606;2023-09-18T21:09:17;1;0;
69350;PMS7003;57106;51.446;-2.606;2023-09-18T21:11:43;4;3;
69350;PMS7003;57106;51.446;-2.606;2023-09-18T21:14:09;0;0;
69350;PMS7003;57106;51.446;-2.606;2023-09-18T21:16:34;2;1;
69350;PMS7003;57106;51.446;-2.606;2023-09-18T21:18:59;2;1;
69350;PMS7003;57106;51.446;-2.606;2023-09-18T21:21:25;1;0;
69350;PMS7003;57106;51.446;-2.606;2023-09-18T21:23:50;2;2;
69350;PMS7003;57106;51.446;-2.606;2023-09-18T21:26:16;2;1;
69350;PMS7003;57106;51.446;-2.606;2023-09-18T21:28:41;4;1;
69350;PMS7003;57106;51.446;-2.606;2023-09-18T21:31:07;2;1;
69350;PMS7003;57106;51.446;-2.606;2023-09-18T21:33:32;1;1;
69350;PMS7003;57106;51.446;-2.606;2023-09-18T21:35:57;6;4;
69350;PMS7003;57106;51.446;-2.606;2023-09-18T21:38:23;1;1;
69350;PMS7003;57106;51.446;-2.606;2023-09-18T21:40:48;2;1;
69350;PMS7003;57106;51.446;-2.606;2023-09-18T21:43:14;2;0;
69350;PMS7003;57106;51.446;-2.606;2023-09-18T21:45:39;2;1;
69350;PMS7003;57106;51.446;-2.606;2023-09-18T21:48:05;2;1;
69350;PMS7003;57106;51.446;-2.606;2023-09-18T21:50:30;1;1;
69350;PMS7003;57106;51.446;-2.606;2023-09-18T21:57:46;0;0;
69350;PMS7003;57106;51.446;-2.606;2023-09-18T22:00:12;0;0;
69350;PMS7003;57106;51.446;-2.606;2023-09-18T22:02:38;2;1;
69350;PMS7003;57106;51.446;-2.606;2023-09-18T22:05:02;3;1;
69350;PMS7003;57106;51.446;-2.606;2023-09-18T22:07:28;1;1;
69350;PMS7003;57106;51.446;-2.606;2023-09-18T22:09:53;0;0;
69350;PMS7003;57106;51.446;-2.606;2023-09-18T22:12:18;3;0;
69350;PMS7003;57106;51.446;-2.606;2023-09-18T22:14:44;1;0;
69350;PMS7003;57106;51.446;-2.606;2023-09-18T22:17:09;2;2;
69350;PMS7003;57106;51.446;-2.606;2023-09-18T22:19:35;1;1;
69350;PMS7003;57106;51.446;-2.606;2023-09-18T22:22:00;1;1;
69350;PMS7003;57106;51.446;-2.606;2023-09-18T22:24:26;2;1;
69350;PMS7003;57106;51.446;-2.606;2023-09-18T22:26:53;4;1;
69350;PMS7003;57106;51.446;-2.606;2023-09-18T22:29:17;3;1;
69350;PMS7003;57106;51.446;-2.606;2023-09-18T22:31:47;4;2;
69350;PMS7003;57106;51.446;-2.606;2023-09-18T22:34:09;3;0;
69350;PMS7003;57106;51.446;-2.606;2023-09-18T22:36:34;2;2;
69350;PMS7003;57106;51.446;-2.606;2023-09-18T22:39:00;1;1;
69350;PMS7003;57106;51.446;-2.606;2023-09-18T22:55:57;2;2;
69350;PMS7003;57106;51.446;-2.606;2023-09-18T23:03:13;5;2;
69350;PMS7003;57106;51.446;-2.606;2023-09-18T23:08:06;2;0;
69350;PMS7003;57106;51.446;-2.606;2023-09-18T23:10:29;1;1;
69350;PMS7003;57106;51.446;-2.606;2023-09-18T23:12:54;2;1;
69350;PMS7003;57106;51.446;-2.606;2023-09-18T23:15:19;3;2;
69350;PMS7003;57106;51.446;-2.606;2023-09-18T23:17:45;3;1;
69350;PMS7003;57106;51.446;-2.606;2023-09-18T23:20:10;4;3;
69350;PMS7003;57106;51.446;-2.606;2023-09-18T23:22:35;4;3;
69350;PMS7003;57106;51.446;-2.606;2023-09-18T23:25:01;3;3;
69350;PMS7003;57106;51.446;-2.606;2023-09-18T23:27:26;2;1;
69350;PMS7003;57106;51.446;-2.606;2023-09-18T23:29:52;6;3;
69350;PMS7003;57106;51.446;-2.606;2023-09-18T23:32:17;2;1;
69350;PMS7003;57106;51.446;-2.606;2023-09-18T23:34:43;1;1;
69350;PMS7003;57106;51.446;-2.606;2023-09-18T23:37:08;3;2;
69350;PMS7003;57106;51.446;-2.606;2023-09-18T23:39:34;3;2;
69350;PMS7003;57106;51.446;-2.606;2023-09-18T23:41:59;1;1;
69350;PMS7003;57106;51.446;-2.606;2023-09-18T23:44:25;1;1;
69350;PMS7003;57106;51.446;-2.606;2023-09-18T23:46:50;2;2;
69350;PMS7003;57106;51.446;-2.606;2023-09-18T23:49:15;6;3;
69350;PMS7003;57106;51.446;-2.606;2023-09-18T23:51:41;2;1;
69350;PMS7003;57106;51.446;-2.606;2023-09-18T23:54:07;3;1;
69350;PMS7003;57106;51.446;-2.606;2023-09-18T23:56:32;2;1;
69350;PMS7003;57106;51.446;-2.606;2023-09-18T23:58:58;5;1;
